createdAt,value
2023-03-26T00:00:06.757Z,9.279827
2023-03-26T00:01:06.782Z,9.279851
2023-03-26T00:02:06.729Z,9.279937
2023-03-26T00:03:06.721Z,9.279982
2023-03-26T00:04:06.719Z,9.280008
2023-03-26T00:05:06.693Z,9.279977
2023-03-26T00:06:06.689Z,9.279904
2023-03-26T00:07:06.622Z,9.279912
2023-03-26T00:08:06.604Z,9.279772
2023-03-26T00:09:06.602Z,9.279885
2023-03-26T00:10:06.575Z,9.279854
2023-03-26T00:11:06.573Z,9.279966
2023-03-26T00:12:06.556Z,9.279958
2023-03-26T00:13:06.507Z,9.279964
2023-03-26T00:14:06.488Z,9.279918
2023-03-26T00:15:06.474Z,9.280035
2023-03-26T00:16:06.524Z,9.279994
2023-03-26T00:17:06.434Z,9.279874
2023-03-26T00:18:06.448Z,9.279826
2023-03-26T00:19:06.399Z,9.279910
2023-03-26T00:20:06.380Z,9.279950
2023-03-26T00:21:06.389Z,9.279962
2023-03-26T00:22:06.351Z,9.280027
2023-03-26T00:23:06.324Z,9.280022
2023-03-26T00:24:06.338Z,9.279943
2023-03-26T00:25:06.287Z,9.279939
2023-03-26T00:26:06.297Z,9.279986
2023-03-26T00:27:06.243Z,9.279858
2023-03-26T00:28:06.233Z,9.279788
2023-03-26T00:29:06.210Z,9.279915
2023-03-26T00:30:06.188Z,9.279953
2023-03-26T00:31:06.222Z,9.279952
2023-03-26T00:32:06.151Z,9.279985
2023-03-26T00:33:06.149Z,9.280020
2023-03-26T00:34:06.116Z,9.279929
2023-03-26T00:35:06.095Z,9.279984
2023-03-26T00:36:06.157Z,9.280055
2023-03-26T00:37:06.063Z,9.279966
2023-03-26T00:38:06.044Z,9.280033
2023-03-26T00:39:06.272Z,9.279996
2023-03-26T00:40:06.028Z,9.279967
2023-03-26T00:41:06.072Z,9.279922
2023-03-26T00:42:05.964Z,9.279945
2023-03-26T00:43:05.945Z,9.280030
2023-03-26T00:44:05.932Z,9.279964
2023-03-26T00:45:05.913Z,9.279954
2023-03-26T00:46:05.926Z,9.279923
2023-03-26T00:47:05.869Z,9.279932
2023-03-26T00:48:05.903Z,9.280045
2023-03-26T00:49:05.835Z,9.279968
2023-03-26T00:50:05.815Z,9.280032
2023-03-26T00:51:05.823Z,9.280065
2023-03-26T00:52:05.774Z,9.280006
2023-03-26T00:53:05.757Z,9.279991
2023-03-26T00:54:05.742Z,9.279900
2023-03-26T00:55:05.725Z,9.279954
2023-03-26T00:56:05.733Z,9.279973
2023-03-26T00:57:05.715Z,9.280012
2023-03-26T00:58:05.667Z,9.280025
2023-03-26T00:59:05.655Z,9.279988
2023-03-26T01:00:05.633Z,9.279991
2023-03-26T01:01:39.254Z,9.279955
2023-03-26T01:02:05.601Z,9.279990
2023-03-26T01:03:05.655Z,9.280041
2023-03-26T01:04:09.146Z,9.280104
2023-03-26T01:05:06.580Z,9.280049
2023-03-26T01:06:05.529Z,9.280048
2023-03-26T01:07:39.140Z,9.279993
2023-03-26T01:08:05.497Z,9.279961
2023-03-26T01:11:28.088Z,9.279901
2023-03-26T01:12:28.042Z,9.279846
2023-03-26T01:13:28.025Z,9.279912
2023-03-26T01:14:28.001Z,9.279863
2023-03-26T01:15:27.988Z,9.279967
2023-03-26T01:16:27.991Z,9.280050
2023-03-26T01:17:28.046Z,9.280073
2023-03-26T01:18:27.934Z,9.279979
2023-03-26T01:20:01.489Z,9.280025
2023-03-26T01:20:27.904Z,9.280025
2023-03-26T01:22:01.479Z,9.279927
2023-03-26T01:22:27.858Z,9.279893
2023-03-26T01:24:01.427Z,9.279923
2023-03-26T01:24:27.833Z,9.279933
2023-03-26T01:26:01.452Z,9.279910
2023-03-26T01:26:27.799Z,9.279883
2023-03-26T01:28:01.355Z,9.279900
2023-03-26T01:28:27.770Z,9.279958
2023-03-26T01:29:27.755Z,9.279958
2023-03-26T01:30:27.731Z,9.279970
2023-03-26T01:31:27.743Z,9.280014
2023-03-26T01:33:01.429Z,9.279876
2023-03-26T01:33:27.773Z,9.279872
2023-03-26T01:34:27.660Z,9.279905
2023-03-26T01:35:27.671Z,9.279988
2023-03-26T01:36:27.653Z,9.279982
2023-03-26T01:37:27.643Z,9.280003
2023-03-26T01:38:27.586Z,9.279938
2023-03-26T01:39:27.567Z,9.279955
2023-03-26T01:40:27.551Z,9.279986
2023-03-26T01:41:27.534Z,9.280018
2023-03-26T01:42:27.538Z,9.279964
2023-03-26T01:43:27.490Z,9.279906
2023-03-26T01:44:27.478Z,9.279953
2023-03-26T01:45:27.456Z,9.279965
2023-03-26T01:46:27.543Z,9.279949
2023-03-26T01:47:27.432Z,9.279971
2023-03-26T01:48:27.401Z,9.279961
2023-03-26T01:49:27.388Z,9.279975
2023-03-26T01:50:27.358Z,9.279870
2023-03-26T01:51:27.391Z,9.279984
2023-03-26T01:52:27.321Z,9.279964
2023-03-26T01:53:27.304Z,9.279967
2023-03-26T01:54:27.292Z,9.279964
2023-03-26T01:55:27.267Z,9.279965
2023-03-26T01:56:27.284Z,9.279930
2023-03-26T01:57:27.233Z,9.279917
2023-03-26T01:58:27.240Z,9.279873
2023-03-26T01:59:27.197Z,9.279921
2023-03-26T02:01:00.775Z,9.279957
2023-03-26T02:01:27.213Z,9.280080
2023-03-26T02:02:27.308Z,9.279987
2023-03-26T02:03:27.247Z,9.279963
2023-03-26T02:04:27.103Z,9.279958
2023-03-26T02:05:27.087Z,9.279937
2023-03-26T02:06:27.071Z,9.279755
2023-03-26T02:07:27.074Z,9.279814
2023-03-26T02:08:27.030Z,9.279992
2023-03-26T02:09:27.012Z,9.279853
2023-03-26T02:10:26.998Z,9.279929
2023-03-26T02:11:33.642Z,9.279837
2023-03-26T02:12:28.978Z,9.279972
2023-03-26T02:13:26.936Z,9.279839
2023-03-26T02:14:26.916Z,9.279949
2023-03-26T02:15:26.944Z,9.279976
2023-03-26T02:16:26.895Z,9.279842
2023-03-26T02:17:26.903Z,9.279867
2023-03-26T02:18:26.860Z,9.279908
2023-03-26T02:19:26.818Z,9.279901
2023-03-26T02:20:26.797Z,9.280023
2023-03-26T02:21:26.784Z,9.279978
2023-03-26T02:22:26.791Z,9.279950
2023-03-26T02:23:26.739Z,9.279924
2023-03-26T02:24:26.732Z,9.280028
2023-03-26T02:25:26.705Z,9.280011
2023-03-26T02:26:26.693Z,9.279944
2023-03-26T02:27:26.697Z,9.279957
2023-03-26T02:28:26.651Z,9.279921
2023-03-26T02:29:26.624Z,9.279984
2023-03-26T02:30:26.629Z,9.279874
2023-03-26T02:31:26.845Z,9.279976
2023-03-26T02:32:28.773Z,9.280003
2023-03-26T02:33:26.551Z,9.279961
2023-03-26T02:34:26.541Z,9.279921
2023-03-26T02:35:26.610Z,9.279994
2023-03-26T02:36:26.597Z,9.279932
2023-03-26T02:37:26.513Z,9.279922
2023-03-26T02:38:26.460Z,9.279963
2023-03-26T02:39:26.441Z,9.279983
2023-03-26T02:40:26.419Z,9.279962
2023-03-26T02:41:26.402Z,9.279904
2023-03-26T02:42:26.426Z,9.279930
2023-03-26T02:43:26.374Z,9.279867
2023-03-26T02:44:26.383Z,9.279964
2023-03-26T02:45:26.374Z,9.279879
2023-03-26T02:46:26.358Z,9.279821
2023-03-26T02:47:26.329Z,9.279933
2023-03-26T02:48:26.276Z,9.279959
2023-03-26T02:49:26.267Z,9.279995
2023-03-26T02:50:26.240Z,9.279898
2023-03-26T02:51:26.225Z,9.279888
2023-03-26T02:52:26.230Z,9.279856
2023-03-26T02:53:26.186Z,9.279836
2023-03-26T02:54:26.169Z,9.279808
2023-03-26T02:55:26.149Z,9.279820
2023-03-26T02:56:26.132Z,9.279669
2023-03-26T02:57:26.182Z,9.279772
2023-03-26T02:58:26.092Z,9.279784
2023-03-26T02:59:26.070Z,9.280077
2023-03-26T03:00:26.050Z,9.279946
2023-03-26T03:01:26.052Z,9.279834
2023-03-26T03:02:26.119Z,9.279944
2023-03-26T03:03:26.099Z,9.279798
2023-03-26T03:04:25.987Z,9.279781
2023-03-26T03:05:25.956Z,9.279827
2023-03-26T03:06:25.944Z,9.279896
2023-03-26T03:07:25.963Z,9.279723
2023-03-26T03:08:25.916Z,9.279828
2023-03-26T03:09:25.885Z,9.279853
2023-03-26T03:10:25.869Z,9.279914
2023-03-26T03:11:25.854Z,9.279987
2023-03-26T03:12:25.829Z,9.279920
2023-03-26T03:13:25.840Z,9.279951
2023-03-26T03:14:25.790Z,9.279716
2023-03-26T03:15:25.769Z,9.279645
2023-03-26T03:16:25.798Z,9.279941
2023-03-26T03:17:25.746Z,9.279912
2023-03-26T03:18:25.750Z,9.279841
2023-03-26T03:19:25.696Z,9.279939
2023-03-26T03:20:25.691Z,9.279857
2023-03-26T03:21:25.666Z,9.279864
2023-03-26T03:22:25.646Z,9.279978
2023-03-26T03:23:25.656Z,9.279923
2023-03-26T03:24:25.610Z,9.280040
2023-03-26T03:25:25.592Z,9.280067
2023-03-26T03:26:25.569Z,9.279988
2023-03-26T03:27:25.552Z,9.279935
2023-03-26T03:28:25.562Z,9.279990
2023-03-26T03:29:25.534Z,9.279961
2023-03-26T03:30:26.498Z,9.280033
2023-03-26T03:31:25.512Z,9.280156
2023-03-26T03:32:25.482Z,9.280105
2023-03-26T03:33:25.479Z,9.280021
2023-03-26T03:34:25.429Z,9.279813
2023-03-26T03:35:25.416Z,9.280025
2023-03-26T03:36:25.386Z,9.279976
2023-03-26T03:37:25.366Z,9.280019
2023-03-26T03:38:25.390Z,9.280002
2023-03-26T03:39:25.328Z,9.279932
2023-03-26T03:40:25.313Z,9.279951
2023-03-26T03:41:58.842Z,9.279939
2023-03-26T03:42:25.273Z,9.279954
2023-03-26T03:43:25.292Z,9.279860
2023-03-26T03:44:25.254Z,9.279816
2023-03-26T03:45:25.222Z,9.279978
2023-03-26T03:46:25.238Z,9.279859
2023-03-26T03:47:25.214Z,9.280082
2023-03-26T03:48:25.197Z,9.280056
2023-03-26T03:49:25.152Z,9.279969
2023-03-26T03:50:25.141Z,9.279990
2023-03-26T03:51:25.121Z,9.280002
2023-03-26T03:52:25.101Z,9.280032
2023-03-26T03:53:25.109Z,9.279940
2023-03-26T03:54:25.060Z,9.279852
2023-03-26T03:55:25.040Z,9.279942
2023-03-26T03:56:25.029Z,9.280092
2023-03-26T03:57:25.009Z,9.280044
2023-03-26T03:58:25.017Z,9.279860
2023-03-26T03:59:24.968Z,9.279931
2023-03-26T04:00:24.949Z,9.279968
2023-03-26T04:01:24.935Z,9.279957
2023-03-26T04:02:24.952Z,9.280009
2023-03-26T04:03:57.064Z,9.279995
2023-03-26T04:04:24.956Z,9.279933
2023-03-26T04:05:57.123Z,9.279883
2023-03-26T04:06:24.851Z,9.279841
2023-03-26T04:07:57.464Z,9.279904
2023-03-26T04:08:24.819Z,9.279928
2023-03-26T04:09:24.798Z,9.279910
2023-03-26T04:10:24.777Z,9.279916
2023-03-26T04:11:58.320Z,9.279950
2023-03-26T04:12:24.746Z,9.279873
2023-03-26T04:13:24.768Z,9.279881
2023-03-26T04:14:24.715Z,9.279915
2023-03-26T04:15:24.695Z,9.279942
2023-03-26T04:16:24.694Z,9.279920
2023-03-26T04:17:24.756Z,9.280082
2023-03-26T04:18:24.660Z,9.279961
2023-03-26T04:19:24.614Z,9.279984
2023-03-26T04:20:24.600Z,9.280029
2023-03-26T04:21:24.594Z,9.280086
2023-03-26T04:22:24.557Z,9.280031
2023-03-26T04:23:24.566Z,9.279981
2023-03-26T04:24:24.521Z,9.279877
2023-03-26T04:25:24.503Z,9.279854
2023-03-26T04:26:24.489Z,9.279848
2023-03-26T04:27:24.470Z,9.279919
2023-03-26T04:28:24.468Z,9.279937
2023-03-26T04:29:24.422Z,9.279913
2023-03-26T04:30:24.403Z,9.279843
2023-03-26T04:31:24.678Z,9.279757
2023-03-26T04:32:24.394Z,9.279769
2023-03-26T04:33:24.383Z,9.279865
2023-03-26T04:34:24.577Z,9.279736
2023-03-26T04:35:24.357Z,9.279958
2023-03-26T04:36:24.289Z,9.280055
2023-03-26T04:37:57.842Z,9.279998
2023-03-26T04:38:24.290Z,9.280057
2023-03-26T04:39:24.241Z,9.280037
2023-03-26T04:40:24.227Z,9.279948
2023-03-26T04:41:24.207Z,9.279988
2023-03-26T04:42:24.191Z,9.280006
2023-03-26T04:43:24.203Z,9.279956
2023-03-26T04:44:24.155Z,9.279850
2023-03-26T04:45:24.131Z,9.279928
2023-03-26T04:46:24.223Z,9.279922
2023-03-26T04:47:24.131Z,9.280037
2023-03-26T04:48:24.108Z,9.280149
2023-03-26T04:49:24.059Z,9.280068
2023-03-26T04:50:24.042Z,9.280019
2023-03-26T04:51:24.024Z,9.279959
2023-03-26T04:52:24.013Z,9.280006
2023-03-26T04:53:24.074Z,9.280000
2023-03-26T04:54:23.966Z,9.280101
2023-03-26T04:55:23.949Z,9.279958
2023-03-26T04:56:23.931Z,9.279967
2023-03-26T04:57:23.908Z,9.279940
2023-03-26T04:58:23.921Z,9.279936
2023-03-26T04:59:23.872Z,9.279935
2023-03-26T05:00:23.855Z,9.279902
2023-03-26T05:01:23.894Z,9.279898
2023-03-26T05:02:23.818Z,9.279960
2023-03-26T05:03:23.836Z,9.279883
2023-03-26T05:04:23.801Z,9.279897
2023-03-26T05:05:23.764Z,9.279858
2023-03-26T05:06:23.746Z,9.279809
2023-03-26T05:07:23.756Z,9.279942
2023-03-26T05:08:23.711Z,9.279982
2023-03-26T05:09:23.720Z,9.279950
2023-03-26T05:10:23.670Z,9.280068
2023-03-26T05:11:23.659Z,9.280143
2023-03-26T05:12:23.644Z,9.280027
2023-03-26T05:13:23.618Z,9.279999
2023-03-26T05:14:23.630Z,9.280126
2023-03-26T05:15:23.576Z,9.280071
2023-03-26T05:16:24.613Z,9.280013
2023-03-26T05:17:23.595Z,9.280025
2023-03-26T05:18:23.537Z,9.280006
2023-03-26T05:19:23.550Z,9.279962
2023-03-26T05:20:23.491Z,9.280047
2023-03-26T05:21:23.486Z,9.279920
2023-03-26T05:22:23.467Z,9.279910
2023-03-26T05:23:23.436Z,9.280010
2023-03-26T05:24:23.448Z,9.279933
2023-03-26T05:25:23.398Z,9.280012
2023-03-26T05:26:23.391Z,9.279975
2023-03-26T05:27:23.378Z,9.279873
2023-03-26T05:28:23.358Z,9.279942
2023-03-26T05:29:23.357Z,9.280051
2023-03-26T05:30:23.312Z,9.280037
2023-03-26T05:31:23.290Z,9.279853
2023-03-26T05:32:23.356Z,9.279821
2023-03-26T05:33:23.345Z,9.279897
2023-03-26T05:34:23.267Z,9.279743
2023-03-26T05:35:23.232Z,9.279556
2023-03-26T05:36:23.199Z,9.279662
2023-03-26T05:37:23.183Z,9.279875
2023-03-26T05:38:23.164Z,9.280614
2023-03-26T05:39:23.179Z,9.281031
2023-03-26T05:40:23.127Z,9.280696
2023-03-26T05:41:23.107Z,9.279538
2023-03-26T05:42:23.094Z,9.279498
2023-03-26T05:43:23.069Z,9.279448
2023-03-26T05:44:23.082Z,9.280087
2023-03-26T05:45:23.062Z,9.280272
2023-03-26T05:46:23.068Z,9.279935
2023-03-26T05:47:23.097Z,9.279583
2023-03-26T05:48:22.978Z,9.279756
2023-03-26T05:49:23.003Z,9.279239
2023-03-26T05:50:22.949Z,9.279617
2023-03-26T05:51:22.935Z,9.279828
2023-03-26T05:52:22.919Z,9.279822
2023-03-26T05:53:22.881Z,9.280049
2023-03-26T05:54:22.895Z,9.280111
2023-03-26T05:55:22.843Z,9.280085
2023-03-26T05:56:22.838Z,9.280103
2023-03-26T05:57:22.810Z,9.279822
2023-03-26T05:58:22.794Z,9.279992
2023-03-26T05:59:22.805Z,9.279819
2023-03-26T06:00:22.761Z,9.279561
2023-03-26T06:01:22.762Z,9.279791
2023-03-26T06:02:22.742Z,9.279978
2023-03-26T06:03:22.844Z,9.279943
2023-03-26T06:04:22.835Z,9.279873
2023-03-26T06:05:22.673Z,9.279952
2023-03-26T06:06:22.654Z,9.279807
2023-03-26T06:07:22.651Z,9.279739
2023-03-26T06:08:22.624Z,9.279933
2023-03-26T06:09:22.639Z,9.280036
2023-03-26T06:10:22.584Z,9.280078
2023-03-26T06:11:22.568Z,9.279759
2023-03-26T06:12:22.544Z,9.279686
2023-03-26T06:13:22.532Z,9.279755
2023-03-26T06:14:22.541Z,9.279750
2023-03-26T06:15:22.502Z,9.280005
2023-03-26T06:16:27.262Z,9.280046
2023-03-26T06:17:23.468Z,9.279842
2023-03-26T06:18:22.482Z,9.279978
2023-03-26T06:19:22.449Z,9.279957
2023-03-26T06:20:22.405Z,9.279764
2023-03-26T06:21:22.381Z,9.279848
2023-03-26T06:22:22.365Z,9.279789
2023-03-26T06:23:22.340Z,9.279782
2023-03-26T06:24:22.346Z,9.279747
2023-03-26T06:25:22.298Z,9.279708
2023-03-26T06:26:22.276Z,9.279711
2023-03-26T06:27:22.257Z,9.279833
2023-03-26T06:28:22.253Z,9.279895
2023-03-26T06:29:22.257Z,9.279968
2023-03-26T06:30:22.193Z,9.279757
2023-03-26T06:31:22.190Z,9.279698
2023-03-26T06:32:22.187Z,9.279696
2023-03-26T06:33:24.411Z,9.279788
2023-03-26T06:34:23.144Z,9.279680
2023-03-26T06:35:22.090Z,9.279706
2023-03-26T06:36:22.068Z,9.279794
2023-03-26T06:37:22.099Z,9.279906
2023-03-26T06:38:22.033Z,9.279735
2023-03-26T06:39:22.035Z,9.280076
2023-03-26T06:40:21.979Z,9.279975
2023-03-26T06:41:21.968Z,9.279975
2023-03-26T06:42:21.938Z,9.279913
2023-03-26T06:43:22.924Z,9.279813
2023-03-26T06:44:21.933Z,9.279835
2023-03-26T06:45:21.888Z,9.279838
2023-03-26T06:46:21.916Z,9.279778
2023-03-26T06:47:21.898Z,9.279786
2023-03-26T06:48:21.819Z,9.279863
2023-03-26T06:49:21.829Z,9.279860
2023-03-26T06:50:21.783Z,9.279841
2023-03-26T06:51:21.782Z,9.279842
2023-03-26T06:52:21.745Z,9.279781
2023-03-26T06:53:21.733Z,9.279807
2023-03-26T06:54:21.740Z,9.279845
2023-03-26T06:55:21.703Z,9.279959
2023-03-26T06:56:21.669Z,9.279997
2023-03-26T06:57:21.654Z,9.279977
2023-03-26T06:58:21.641Z,9.279852
2023-03-26T06:59:21.654Z,9.279994
2023-03-26T07:00:21.604Z,9.279921
2023-03-26T07:01:21.599Z,9.279972
2023-03-26T07:02:21.587Z,9.279957
2023-03-26T07:03:21.549Z,9.279892
2023-03-26T07:04:21.633Z,9.279911
2023-03-26T07:05:21.531Z,9.279925
2023-03-26T07:06:21.483Z,9.279909
2023-03-26T07:07:22.475Z,9.279879
2023-03-26T07:08:21.463Z,9.279855
2023-03-26T07:09:21.461Z,9.279866
2023-03-26T07:10:21.417Z,9.279896
2023-03-26T07:11:21.400Z,9.279952
2023-03-26T07:12:21.405Z,9.279951
2023-03-26T07:13:21.363Z,9.279941
2023-03-26T07:14:21.376Z,9.279960
2023-03-26T07:15:21.357Z,9.279922
2023-03-26T07:16:21.336Z,9.279945
2023-03-26T07:17:21.286Z,9.280005
2023-03-26T07:18:21.332Z,9.279919
2023-03-26T07:19:21.288Z,9.279902
2023-03-26T07:20:21.234Z,9.279910
2023-03-26T07:21:21.216Z,9.279844
2023-03-26T07:22:21.237Z,9.279921
2023-03-26T07:23:21.195Z,9.279805
2023-03-26T07:24:21.195Z,9.279828
2023-03-26T07:25:21.148Z,9.279909
2023-03-26T07:26:21.120Z,9.279932
2023-03-26T07:27:22.109Z,9.279925
2023-03-26T07:28:21.099Z,9.279880
2023-03-26T07:29:21.115Z,9.279882
2023-03-26T07:30:21.071Z,9.279890
2023-03-26T07:31:21.059Z,9.279837
2023-03-26T07:32:21.140Z,9.279817
2023-03-26T07:33:21.177Z,9.279841
2023-03-26T07:34:21.018Z,9.279806
2023-03-26T07:35:20.985Z,9.279803
2023-03-26T07:36:20.945Z,9.279828
2023-03-26T07:37:20.930Z,9.279871
2023-03-26T07:38:20.911Z,9.279956
2023-03-26T07:39:20.920Z,9.279964
2023-03-26T07:40:20.872Z,9.279929
2023-03-26T07:41:20.849Z,9.279885
2023-03-26T07:42:20.828Z,9.279918
2023-03-26T07:43:20.805Z,9.279991
2023-03-26T07:44:20.826Z,9.279979
2023-03-26T07:45:20.764Z,9.279940
2023-03-26T07:46:20.830Z,9.279832
2023-03-26T07:47:20.725Z,9.279869
2023-03-26T07:48:20.704Z,9.279770
2023-03-26T07:49:20.715Z,9.279778
2023-03-26T07:50:20.674Z,9.279802
2023-03-26T07:51:20.644Z,9.279855
2023-03-26T07:52:20.630Z,9.279748
2023-03-26T07:53:20.600Z,9.279755
2023-03-26T07:54:20.763Z,9.279746
2023-03-26T07:55:20.559Z,9.279671
2023-03-26T07:56:20.609Z,9.279753
2023-03-26T07:57:20.552Z,9.279750
2023-03-26T07:58:20.495Z,9.279884
2023-03-26T07:59:20.499Z,9.279863
2023-03-26T08:00:20.492Z,9.279845
2023-03-26T08:01:20.432Z,9.279926
2023-03-26T08:02:20.423Z,9.280021
2023-03-26T08:03:20.650Z,9.279924
2023-03-26T08:04:24.325Z,9.279829
2023-03-26T08:05:21.384Z,9.279801
2023-03-26T08:06:20.328Z,9.279919
2023-03-26T08:07:20.306Z,9.279941
2023-03-26T08:08:20.286Z,9.279935
2023-03-26T08:09:20.263Z,9.279919
2023-03-26T08:10:20.330Z,9.279876
2023-03-26T08:11:20.226Z,9.279886
2023-03-26T08:12:20.208Z,9.279944
2023-03-26T08:13:20.186Z,9.279900
2023-03-26T08:14:20.162Z,9.279789
2023-03-26T08:15:20.635Z,9.279920
2023-03-26T08:16:20.187Z,9.279936
2023-03-26T08:17:20.100Z,9.279882
2023-03-26T08:18:20.087Z,9.279871
2023-03-26T08:19:20.067Z,9.279877
2023-03-26T08:20:20.083Z,9.279901
2023-03-26T08:21:20.030Z,9.279840
2023-03-26T08:22:19.999Z,9.279975
2023-03-26T08:23:19.991Z,9.279882
2023-03-26T08:24:19.959Z,9.279889
2023-03-26T08:25:19.970Z,9.279852
2023-03-26T08:26:19.920Z,9.279917
2023-03-26T08:27:19.903Z,9.279918
2023-03-26T08:28:19.888Z,9.279936
2023-03-26T08:29:19.892Z,9.279882
2023-03-26T08:30:19.874Z,9.279851
2023-03-26T08:31:19.880Z,9.279930
2023-03-26T08:32:19.810Z,9.279914
2023-03-26T08:33:19.800Z,9.279978
2023-03-26T08:34:19.779Z,9.279923
2023-03-26T08:35:19.807Z,9.279889
2023-03-26T08:36:19.735Z,9.279902
2023-03-26T08:37:19.720Z,9.280009
2023-03-26T08:38:19.701Z,9.279853
2023-03-26T08:39:19.685Z,9.279821
2023-03-26T08:40:19.698Z,9.279816
2023-03-26T08:41:19.666Z,9.279858
2023-03-26T08:42:19.633Z,9.279766
2023-03-26T08:43:19.610Z,9.279821
2023-03-26T08:44:19.595Z,9.279992
2023-03-26T08:45:19.613Z,9.280023
2023-03-26T08:46:19.579Z,9.279876
2023-03-26T08:47:19.539Z,9.279818
2023-03-26T08:48:19.523Z,9.279962
2023-03-26T08:49:19.504Z,9.279943
2023-03-26T08:50:19.513Z,9.280008
2023-03-26T08:51:19.475Z,9.279922
2023-03-26T08:52:19.453Z,9.279780
2023-03-26T08:53:19.438Z,9.280013
2023-03-26T08:54:19.415Z,9.279918
2023-03-26T08:55:19.430Z,9.279793
2023-03-26T08:56:19.393Z,9.279830
2023-03-26T08:57:19.369Z,9.279653
2023-03-26T08:58:19.353Z,9.279708
2023-03-26T08:59:19.334Z,9.279829
2023-03-26T09:00:19.345Z,9.279771
2023-03-26T09:01:19.333Z,9.279846
2023-03-26T09:02:19.281Z,9.279933
2023-03-26T09:03:19.258Z,9.279978
2023-03-26T09:04:19.281Z,9.279972
2023-03-26T09:05:19.254Z,9.279973
2023-03-26T09:06:19.211Z,9.280014
2023-03-26T09:07:19.187Z,9.280018
2023-03-26T09:08:19.172Z,9.279931
2023-03-26T09:09:19.561Z,9.279889
2023-03-26T09:10:19.162Z,9.279885
2023-03-26T09:11:19.138Z,9.279986
2023-03-26T09:12:19.108Z,9.279967
2023-03-26T09:13:19.089Z,9.279868
2023-03-26T09:14:19.070Z,9.279817
2023-03-26T09:15:19.076Z,9.279972
2023-03-26T09:16:19.132Z,9.279922
2023-03-26T09:17:19.017Z,9.279975
2023-03-26T09:18:18.999Z,9.279962
2023-03-26T09:19:18.976Z,9.279907
2023-03-26T09:20:18.988Z,9.279877
2023-03-26T09:21:18.944Z,9.279918
2023-03-26T09:22:18.929Z,9.279902
2023-03-26T09:23:18.909Z,9.279946
2023-03-26T09:24:18.893Z,9.280009
2023-03-26T09:25:18.907Z,9.279956
2023-03-26T09:26:18.866Z,9.279923
2023-03-26T09:27:18.839Z,9.279892
2023-03-26T09:28:18.816Z,9.279894
2023-03-26T09:29:18.808Z,9.279946
2023-03-26T09:30:18.813Z,9.280042
2023-03-26T09:31:18.803Z,9.280017
2023-03-26T09:32:18.752Z,9.280019
2023-03-26T09:33:18.737Z,9.280054
2023-03-26T09:34:18.720Z,9.280056
2023-03-26T09:35:18.753Z,9.280042
2023-03-26T09:36:18.682Z,9.280030
2023-03-26T09:37:18.734Z,9.280015
2023-03-26T09:38:18.663Z,9.280053
2023-03-26T09:39:18.625Z,9.280069
2023-03-26T09:40:18.645Z,9.280043
2023-03-26T09:41:18.596Z,9.280005
2023-03-26T09:42:18.636Z,9.280003
2023-03-26T09:43:18.617Z,9.279954
2023-03-26T09:44:18.539Z,9.280020
2023-03-26T09:45:18.579Z,9.280052
2023-03-26T09:46:18.587Z,9.280022
2023-03-26T09:47:18.563Z,9.279942
2023-03-26T09:48:18.467Z,9.279984
2023-03-26T09:49:18.459Z,9.279991
2023-03-26T09:50:18.460Z,9.279976
2023-03-26T09:51:18.414Z,9.279949
2023-03-26T09:52:18.396Z,9.280036
2023-03-26T09:53:18.383Z,9.280119
2023-03-26T09:54:18.361Z,9.280080
2023-03-26T09:55:18.374Z,9.280042
2023-03-26T09:56:18.326Z,9.279992
2023-03-26T09:57:18.432Z,9.279882
2023-03-26T09:58:18.302Z,9.280009
2023-03-26T09:59:18.280Z,9.280028
2023-03-26T10:00:18.294Z,9.280003
2023-03-26T10:01:18.302Z,9.280017
2023-03-26T10:02:18.232Z,9.280028
2023-03-26T10:03:18.249Z,9.280021
2023-03-26T10:04:18.212Z,9.279993
2023-03-26T10:05:18.203Z,9.279988
2023-03-26T10:06:18.157Z,9.280083
2023-03-26T10:07:18.154Z,9.280071
2023-03-26T10:08:18.122Z,9.280060
2023-03-26T10:09:18.107Z,9.280074
2023-03-26T10:10:18.116Z,9.279983
2023-03-26T10:11:18.069Z,9.280116
2023-03-26T10:12:18.052Z,9.279799
2023-03-26T10:13:18.081Z,9.279909
2023-03-26T10:14:18.014Z,9.279909
2023-03-26T10:15:18.029Z,9.279832
2023-03-26T10:16:18.006Z,9.279922
2023-03-26T10:17:17.962Z,9.280016
2023-03-26T10:18:27.044Z,9.280041
2023-03-26T10:19:18.934Z,9.280102
2023-03-26T10:20:17.942Z,9.280047
2023-03-26T10:21:17.888Z,9.279947
2023-03-26T10:22:17.872Z,9.279859
2023-03-26T10:23:17.858Z,9.279766
2023-03-26T10:24:17.841Z,9.279686
2023-03-26T10:25:17.867Z,9.279800
2023-03-26T10:26:17.801Z,9.279981
2023-03-26T10:27:17.785Z,9.280064
2023-03-26T10:28:17.764Z,9.279980
2023-03-26T10:29:17.748Z,9.280131
2023-03-26T10:30:17.758Z,9.279918
2023-03-26T10:31:17.725Z,9.280053
2023-03-26T10:32:17.695Z,9.280059
2023-03-26T10:33:17.680Z,9.279959
2023-03-26T10:34:28.946Z,9.279945
2023-03-26T10:35:18.687Z,9.279900
2023-03-26T10:36:17.628Z,9.279865
2023-03-26T10:37:18.612Z,9.279784
2023-03-26T10:38:17.602Z,9.279924
2023-03-26T10:39:36.835Z,9.279913
2023-03-26T10:40:18.590Z,9.279964
2023-03-26T10:41:17.550Z,9.279806
2023-03-26T10:42:17.531Z,9.279916
2023-03-26T10:43:17.511Z,9.279965
2023-03-26T10:44:17.495Z,9.279947
2023-03-26T10:45:17.514Z,9.279995
2023-03-26T10:46:17.508Z,9.279974
2023-03-26T10:47:17.446Z,9.279952
2023-03-26T10:48:17.447Z,9.280031
2023-03-26T10:49:17.408Z,9.280075
2023-03-26T10:50:22.978Z,9.280027
2023-03-26T10:51:18.388Z,9.279962
2023-03-26T10:52:17.363Z,9.279993
2023-03-26T10:53:17.355Z,9.280042
2023-03-26T10:54:17.332Z,9.280066
2023-03-26T10:55:17.338Z,9.279992
2023-03-26T10:56:17.296Z,9.280009
2023-03-26T10:57:17.315Z,9.279995
2023-03-26T10:58:17.269Z,9.280008
2023-03-26T10:59:17.250Z,9.280013
2023-03-26T11:00:17.284Z,9.279999
2023-03-26T11:01:17.240Z,9.279993
2023-03-26T11:02:17.193Z,9.279978
2023-03-26T11:03:17.195Z,9.279991
2023-03-26T11:04:17.194Z,9.279943
2023-03-26T11:05:17.179Z,9.279940
2023-03-26T11:06:17.121Z,9.279964
2023-03-26T11:07:17.109Z,9.280010
2023-03-26T11:08:17.091Z,9.279999
2023-03-26T11:09:17.076Z,9.279991
2023-03-26T11:10:17.072Z,9.280010
2023-03-26T11:11:17.084Z,9.280048
2023-03-26T11:12:26.792Z,9.280030
2023-03-26T11:13:18.012Z,9.280044
2023-03-26T11:14:27.947Z,9.280088
2023-03-26T11:15:19.013Z,9.280055
2023-03-26T11:16:16.967Z,9.280043
2023-03-26T11:17:40.942Z,9.280038
2023-03-26T11:18:17.976Z,9.280024
2023-03-26T11:19:16.915Z,9.280010
2023-03-26T11:20:16.887Z,9.280098
2023-03-26T11:21:19.370Z,9.280065
2023-03-26T11:22:16.859Z,9.280048
2023-03-26T11:23:16.843Z,9.280088
2023-03-26T11:24:16.835Z,9.280038
2023-03-26T11:25:16.810Z,9.279952
2023-03-26T11:26:16.851Z,9.280044
2023-03-26T11:27:18.403Z,9.280054
2023-03-26T11:28:16.795Z,9.279954
2023-03-26T11:29:32.535Z,9.280060
2023-03-26T11:30:17.726Z,9.279881
2023-03-26T11:31:16.762Z,9.280139
2023-03-26T11:32:16.729Z,9.280199
2023-03-26T11:33:16.680Z,9.280238
2023-03-26T11:34:16.662Z,9.280245
2023-03-26T11:35:16.659Z,9.280200
2023-03-26T11:36:16.699Z,9.280166
2023-03-26T11:37:16.615Z,9.280112
2023-03-26T11:38:16.591Z,9.280115
2023-03-26T11:39:16.570Z,9.280091
2023-03-26T11:40:16.562Z,9.280054
2023-03-26T11:41:16.570Z,9.279897
2023-03-26T11:42:17.522Z,9.279991
2023-03-26T11:43:16.513Z,9.280048
2023-03-26T11:44:16.485Z,9.280095
2023-03-26T11:45:16.470Z,9.280184
2023-03-26T11:46:16.524Z,9.280184